sensor_id;sensor_type;location;lat;lon;timestamp;temperature;humidity
2721;DHT22;1368;49.484;11.112;2023-06-10T00:00:54;17.20;99.90
2721;DHT22;1368;49.484;11.112;2023-06-10T00:03:21;17.50;99.90
2721;DHT22;1368;49.484;11.112;2023-06-10T00:05:49;17.10;99.90
2721;DHT22;1368;49.484;11.112;2023-06-10T00:08:14;17.10;99.90
2721;DHT22;1368;49.484;11.112;2023-06-10T00:10:41;17.50;99.90
2721;DHT22;1368;49.484;11.112;2023-06-10T00:13:07;17.10;99.90
2721;DHT22;1368;49.484;11.112;2023-06-10T00:15:37;17.30;99.90
2721;DHT22;1368;49.484;11.112;2023-06-10T00:18:03;17.00;99.90
2721;DHT22;1368;49.484;11.112;2023-06-10T00:20:29;16.90;99.90
2721;DHT22;1368;49.484;11.112;2023-06-10T00:22:56;17.20;99.90
2721;DHT22;1368;49.484;11.112;2023-06-10T00:25:22;17.10;99.90
2721;DHT22;1368;49.484;11.112;2023-06-10T00:27:48;16.50;99.90
2721;DHT22;1368;49.484;11.112;2023-06-10T00:30:14;16.40;99.90
2721;DHT22;1368;49.484;11.112;2023-06-10T00:32:39;16.40;99.90
2721;DHT22;1368;49.484;11.112;2023-06-10T00:35:05;16.50;99.90
2721;DHT22;1368;49.484;11.112;2023-06-10T00:37:32;16.50;99.90
2721;DHT22;1368;49.484;11.112;2023-06-10T00:39:57;16.90;99.90
2721;DHT22;1368;49.484;11.112;2023-06-10T00:42:23;16.40;99.90
2721;DHT22;1368;49.484;11.112;2023-06-10T00:44:50;16.60;99.90
2721;DHT22;1368;49.484;11.112;2023-06-10T00:47:16;16.90;99.90
2721;DHT22;1368;49.484;11.112;2023-06-10T00:49:42;16.30;99.90
2721;DHT22;1368;49.484;11.112;2023-06-10T00:52:08;16.60;99.90
2721;DHT22;1368;49.484;11.112;2023-06-10T00:54:36;16.20;99.90
2721;DHT22;1368;49.484;11.112;2023-06-10T00:57:02;16.20;99.90
2721;DHT22;1368;49.484;11.112;2023-06-10T00:59:28;16.10;99.90
2721;DHT22;1368;49.484;11.112;2023-06-10T01:01:55;16.00;99.90
2721;DHT22;1368;49.484;11.112;2023-06-10T01:04:21;16.10;99.90
2721;DHT22;1368;49.484;11.112;2023-06-10T01:07:01;16.00;99.90
2721;DHT22;1368;49.484;11.112;2023-06-10T01:09:39;16.00;99.90
2721;DHT22;1368;49.484;11.112;2023-06-10T01:14:38;15.90;99.90
2721;DHT22;1368;49.484;11.112;2023-06-10T01:17:11;15.90;99.90
2721;DHT22;1368;49.484;11.112;2023-06-10T01:19:37;15.80;99.90
2721;DHT22;1368;49.484;11.112;2023-06-10T01:22:03;15.70;99.90
2721;DHT22;1368;49.484;11.112;2023-06-10T01:24:29;15.60;99.90
2721;DHT22;1368;49.484;11.112;2023-06-10T01:27:00;15.60;99.90
2721;DHT22;1368;49.484;11.112;2023-06-10T01:29:36;15.60;99.90
2721;DHT22;1368;49.484;11.112;2023-06-10T01:32:45;15.50;99.90
2721;DHT22;1368;49.484;11.112;2023-06-10T01:35:05;15.50;99.90
2721;DHT22;1368;49.484;11.112;2023-06-10T01:37:32;15.60;99.90
2721;DHT22;1368;49.484;11.112;2023-06-10T01:40:02;15.60;99.90
2721;DHT22;1368;49.484;11.112;2023-06-10T01:42:32;15.60;99.90
2721;DHT22;1368;49.484;11.112;2023-06-10T01:44:58;15.40;99.90
2721;DHT22;1368;49.484;11.112;2023-06-10T01:47:23;15.70;99.90
2721;DHT22;1368;49.484;11.112;2023-06-10T01:49:49;15.40;99.90
2721;DHT22;1368;49.484;11.112;2023-06-10T01:52:15;15.40;99.90
2721;DHT22;1368;49.484;11.112;2023-06-10T01:54:40;15.30;99.90
2721;DHT22;1368;49.484;11.112;2023-06-10T01:57:06;15.30;99.90
2721;DHT22;1368;49.484;11.112;2023-06-10T01:59:32;15.20;99.90
2721;DHT22;1368;49.484;11.112;2023-06-10T02:01:57;15.10;99.90
2721;DHT22;1368;49.484;11.112;2023-06-10T02:04:23;15.10;99.90
2721;DHT22;1368;49.484;11.112;2023-06-10T02:06:48;15.10;99.90
2721;DHT22;1368;49.484;11.112;2023-06-10T02:09:14;15.10;99.90
2721;DHT22;1368;49.484;11.112;2023-06-10T02:11:39;15.10;99.90
2721;DHT22;1368;49.484;11.112;2023-06-10T02:14:05;15.70;99.90
2721;DHT22;1368;49.484;11.112;2023-06-10T02:16:30;15.10;99.90
2721;DHT22;1368;49.484;11.112;2023-06-10T02:18:56;15.00;99.90
2721;DHT22;1368;49.484;11.112;2023-06-10T02:21:23;15.00;99.90
2721;DHT22;1368;49.484;11.112;2023-06-10T02:23:48;15.30;99.90
2721;DHT22;1368;49.484;11.112;2023-06-10T02:26:14;15.10;99.90
2721;DHT22;1368;49.484;11.112;2023-06-10T02:28:44;15.00;99.90
2721;DHT22;1368;49.484;11.112;2023-06-10T02:31:09;15.20;99.90
2721;DHT22;1368;49.484;11.112;2023-06-10T02:33:35;15.10;99.90
2721;DHT22;1368;49.484;11.112;2023-06-10T02:36:00;15.10;99.90
2721;DHT22;1368;49.484;11.112;2023-06-10T02:38:26;15.10;99.90
2721;DHT22;1368;49.484;11.112;2023-06-10T02:40:51;15.00;99.90
2721;DHT22;1368;49.484;11.112;2023-06-10T02:43:17;15.10;99.90
2721;DHT22;1368;49.484;11.112;2023-06-10T02:45:43;15.20;99.90
2721;DHT22;1368;49.484;11.112;2023-06-10T02:48:09;15.10;99.90
2721;DHT22;1368;49.484;11.112;2023-06-10T02:50:34;15.10;99.90
2721;DHT22;1368;49.484;11.112;2023-06-10T02:53:00;15.60;99.90
2721;DHT22;1368;49.484;11.112;2023-06-10T02:55:25;15.10;99.90
2721;DHT22;1368;49.484;11.112;2023-06-10T02:57:52;14.90;99.90
2721;DHT22;1368;49.484;11.112;2023-06-10T03:00:19;14.80;99.90
2721;DHT22;1368;49.484;11.112;2023-06-10T03:02:45;14.70;99.90
2721;DHT22;1368;49.484;11.112;2023-06-10T03:05:11;14.70;99.90
2721;DHT22;1368;49.484;11.112;2023-06-10T03:07:38;14.80;99.90
2721;DHT22;1368;49.484;11.112;2023-06-10T03:10:05;14.90;99.90
2721;DHT22;1368;49.484;11.112;2023-06-10T03:12:31;14.90;99.90
2721;DHT22;1368;49.484;11.112;2023-06-10T03:14:56;15.00;99.90
2721;DHT22;1368;49.484;11.112;2023-06-10T03:17:22;15.20;99.90
2721;DHT22;1368;49.484;11.112;2023-06-10T03:19:47;14.90;99.90
2721;DHT22;1368;49.484;11.112;2023-06-10T03:22:14;14.90;99.90
2721;DHT22;1368;49.484;11.112;2023-06-10T03:24:40;14.90;99.90
2721;DHT22;1368;49.484;11.112;2023-06-10T03:27:12;15.00;99.90
2721;DHT22;1368;49.484;11.112;2023-06-10T03:29:39;15.10;99.90
2721;DHT22;1368;49.484;11.112;2023-06-10T03:32:05;15.10;99.90
2721;DHT22;1368;49.484;11.112;2023-06-10T03:34:30;15.00;99.90
2721;DHT22;1368;49.484;11.112;2023-06-10T03:36:56;15.20;99.90
2721;DHT22;1368;49.484;11.112;2023-06-10T03:39:22;15.30;99.90
2721;DHT22;1368;49.484;11.112;2023-06-10T03:41:49;15.20;99.90
2721;DHT22;1368;49.484;11.112;2023-06-10T03:44:15;16.20;99.90
2721;DHT22;1368;49.484;11.112;2023-06-10T03:46:41;15.80;99.90
2721;DHT22;1368;49.484;11.112;2023-06-10T03:49:06;16.30;99.90
2721;DHT22;1368;49.484;11.112;2023-06-10T03:51:32;17.00;99.90
2721;DHT22;1368;49.484;11.112;2023-06-10T03:53:57;17.50;99.90
2721;DHT22;1368;49.484;11.112;2023-06-10T03:56:23;18.20;99.90
2721;DHT22;1368;49.484;11.112;2023-06-10T03:58:48;18.50;99.90
2721;DHT22;1368;49.484;11.112;2023-06-10T04:01:14;19.50;99.90
2721;DHT22;1368;49.484;11.112;2023-06-10T04:03:40;19.60;99.90
2721;DHT22;1368;49.484;11.112;2023-06-10T04:06:07;20.10;99.90
2721;DHT22;1368;49.484;11.112;2023-06-10T04:08:33;20.40;99.90
2721;DHT22;1368;49.484;11.112;2023-06-10T04:10:59;20.80;99.90
2721;DHT22;1368;49.484;11.112;2023-06-10T04:13:24;21.10;99.90
2721;DHT22;1368;49.484;11.112;2023-06-10T04:15:50;21.30;99.90
2721;DHT22;1368;49.484;11.112;2023-06-10T04:18:16;21.50;99.90
2721;DHT22;1368;49.484;11.112;2023-06-10T04:20:41;21.80;99.90
2721;DHT22;1368;49.484;11.112;2023-06-10T04:23:07;22.00;99.90
2721;DHT22;1368;49.484;11.112;2023-06-10T04:25:33;22.40;99.90
2721;DHT22;1368;49.484;11.112;2023-06-10T04:27:59;23.40;99.90
2721;DHT22;1368;49.484;11.112;2023-06-10T04:30:24;23.30;99.90
2721;DHT22;1368;49.484;11.112;2023-06-10T04:32:50;23.70;99.90
2721;DHT22;1368;49.484;11.112;2023-06-10T04:35:16;24.20;99.90
2721;DHT22;1368;49.484;11.112;2023-06-10T04:37:41;24.20;99.90
2721;DHT22;1368;49.484;11.112;2023-06-10T04:40:08;24.80;99.90
2721;DHT22;1368;49.484;11.112;2023-06-10T04:42:34;25.30;99.90
2721;DHT22;1368;49.484;11.112;2023-06-10T04:45:00;25.50;99.90
2721;DHT22;1368;49.484;11.112;2023-06-10T04:47:26;26.30;99.50
2721;DHT22;1368;49.484;11.112;2023-06-10T04:49:52;26.30;98.70
2721;DHT22;1368;49.484;11.112;2023-06-10T04:52:17;27.00;97.70
2721;DHT22;1368;49.484;11.112;2023-06-10T04:54:43;26.80;97.40
2721;DHT22;1368;49.484;11.112;2023-06-10T04:57:09;27.50;95.60
2721;DHT22;1368;49.484;11.112;2023-06-10T04:59:36;27.60;95.40
2721;DHT22;1368;49.484;11.112;2023-06-10T05:02:04;27.30;95.80
2721;DHT22;1368;49.484;11.112;2023-06-10T05:04:29;27.40;96.20
2721;DHT22;1368;49.484;11.112;2023-06-10T05:06:55;28.00;95.20
2721;DHT22;1368;49.484;11.112;2023-06-10T05:09:21;28.10;94.70
2721;DHT22;1368;49.484;11.112;2023-06-10T05:11:46;28.20;93.90
2721;DHT22;1368;49.484;11.112;2023-06-10T05:14:12;28.40;92.90
2721;DHT22;1368;49.484;11.112;2023-06-10T05:16:38;27.90;93.80
2721;DHT22;1368;49.484;11.112;2023-06-10T05:19:04;27.90;94.70
2721;DHT22;1368;49.484;11.112;2023-06-10T05:21:30;28.40;93.20
2721;DHT22;1368;49.484;11.112;2023-06-10T05:23:55;28.90;92.40
2721;DHT22;1368;49.484;11.112;2023-06-10T05:26:21;29.30;92.10
2721;DHT22;1368;49.484;11.112;2023-06-10T05:28:47;29.40;91.20
2721;DHT22;1368;49.484;11.112;2023-06-10T05:31:12;29.70;92.00
2721;DHT22;1368;49.484;11.112;2023-06-10T05:33:39;29.70;91.20
2721;DHT22;1368;49.484;11.112;2023-06-10T05:36:05;29.80;89.60
2721;DHT22;1368;49.484;11.112;2023-06-10T05:38:30;29.90;90.10
2721;DHT22;1368;49.484;11.112;2023-06-10T05:40:56;30.00;89.90
2721;DHT22;1368;49.484;11.112;2023-06-10T05:43:22;29.50;90.30
2721;DHT22;1368;49.484;11.112;2023-06-10T05:45:48;29.30;90.60
2721;DHT22;1368;49.484;11.112;2023-06-10T05:48:13;29.60;91.50
2721;DHT22;1368;49.484;11.112;2023-06-10T05:50:39;29.90;91.20
2721;DHT22;1368;49.484;11.112;2023-06-10T05:53:07;30.40;90.90
2721;DHT22;1368;49.484;11.112;2023-06-10T05:55:43;30.90;90.10
2721;DHT22;1368;49.484;11.112;2023-06-10T05:58:09;31.70;88.20
2721;DHT22;1368;49.484;11.112;2023-06-10T06:00:35;32.20;84.80
2721;DHT22;1368;49.484;11.112;2023-06-10T06:03:01;32.40;81.90
2721;DHT22;1368;49.484;11.112;2023-06-10T06:05:26;32.20;82.30
2721;DHT22;1368;49.484;11.112;2023-06-10T06:07:52;31.90;83.90
2721;DHT22;1368;49.484;11.112;2023-06-10T06:10:18;32.20;84.50
2721;DHT22;1368;49.484;11.112;2023-06-10T06:12:44;32.40;82.70
2721;DHT22;1368;49.484;11.112;2023-06-10T06:15:10;32.70;78.30
2721;DHT22;1368;49.484;11.112;2023-06-10T06:17:36;33.00;76.10
2721;DHT22;1368;49.484;11.112;2023-06-10T06:20:03;33.00;78.20
2721;DHT22;1368;49.484;11.112;2023-06-10T06:22:29;33.50;75.10
2721;DHT22;1368;49.484;11.112;2023-06-10T06:24:54;33.70;77.90
2721;DHT22;1368;49.484;11.112;2023-06-10T06:27:20;33.80;75.20
2721;DHT22;1368;49.484;11.112;2023-06-10T06:29:46;33.80;71.40
2721;DHT22;1368;49.484;11.112;2023-06-10T06:32:12;32.90;74.20
2721;DHT22;1368;49.484;11.112;2023-06-10T06:34:38;33.20;74.70
2721;DHT22;1368;49.484;11.112;2023-06-10T06:37:03;33.60;72.00
2721;DHT22;1368;49.484;11.112;2023-06-10T06:39:29;34.30;71.70
2721;DHT22;1368;49.484;11.112;2023-06-10T06:41:54;34.00;70.40
2721;DHT22;1368;49.484;11.112;2023-06-10T06:44:20;33.90;69.10
2721;DHT22;1368;49.484;11.112;2023-06-10T06:46:46;34.40;69.40
2721;DHT22;1368;49.484;11.112;2023-06-10T06:49:11;34.10;69.50
2721;DHT22;1368;49.484;11.112;2023-06-10T06:51:37;34.50;68.20
2721;DHT22;1368;49.484;11.112;2023-06-10T06:54:02;34.70;67.10
2721;DHT22;1368;49.484;11.112;2023-06-10T06:56:28;35.10;66.50
2721;DHT22;1368;49.484;11.112;2023-06-10T06:58:54;34.80;66.40
2721;DHT22;1368;49.484;11.112;2023-06-10T07:01:19;34.20;66.60
2721;DHT22;1368;49.484;11.112;2023-06-10T07:03:45;33.40;66.40
2721;DHT22;1368;49.484;11.112;2023-06-10T07:06:12;32.50;70.00
2721;DHT22;1368;49.484;11.112;2023-06-10T07:08:38;31.60;70.20
2721;DHT22;1368;49.484;11.112;2023-06-10T07:11:03;31.50;71.10
2721;DHT22;1368;49.484;11.112;2023-06-10T07:13:29;31.70;70.80
2721;DHT22;1368;49.484;11.112;2023-06-10T07:15:55;31.60;71.10
2721;DHT22;1368;49.484;11.112;2023-06-10T07:18:20;31.80;71.70
2721;DHT22;1368;49.484;11.112;2023-06-10T07:20:46;32.20;70.10
2721;DHT22;1368;49.484;11.112;2023-06-10T07:23:11;31.70;71.40
2721;DHT22;1368;49.484;11.112;2023-06-10T07:25:37;31.40;71.90
2721;DHT22;1368;49.484;11.112;2023-06-10T07:28:03;31.30;72.40
2721;DHT22;1368;49.484;11.112;2023-06-10T07:30:28;31.60;71.00
2721;DHT22;1368;49.484;11.112;2023-06-10T07:32:54;31.70;70.60
2721;DHT22;1368;49.484;11.112;2023-06-10T07:35:19;31.70;71.40
2721;DHT22;1368;49.484;11.112;2023-06-10T07:37:45;31.90;71.70
2721;DHT22;1368;49.484;11.112;2023-06-10T07:40:11;32.20;70.60
2721;DHT22;1368;49.484;11.112;2023-06-10T07:42:36;32.20;69.90
2721;DHT22;1368;49.484;11.112;2023-06-10T07:45:03;32.60;69.90
2721;DHT22;1368;49.484;11.112;2023-06-10T07:47:29;33.20;68.80
2721;DHT22;1368;49.484;11.112;2023-06-10T07:49:55;33.40;67.00
2721;DHT22;1368;49.484;11.112;2023-06-10T07:52:21;33.90;66.20
2721;DHT22;1368;49.484;11.112;2023-06-10T07:54:46;34.00;64.90
2721;DHT22;1368;49.484;11.112;2023-06-10T07:57:12;33.40;66.10
2721;DHT22;1368;49.484;11.112;2023-06-10T07:59:38;33.40;66.00
2721;DHT22;1368;49.484;11.112;2023-06-10T08:02:04;33.00;66.00
2721;DHT22;1368;49.484;11.112;2023-06-10T08:04:30;32.70;66.00
2721;DHT22;1368;49.484;11.112;2023-06-10T08:06:56;32.70;66.90
2721;DHT22;1368;49.484;11.112;2023-06-10T08:09:22;33.40;65.70
2721;DHT22;1368;49.484;11.112;2023-06-10T08:11:48;33.80;65.50
2721;DHT22;1368;49.484;11.112;2023-06-10T08:14:15;33.80;65.00
2721;DHT22;1368;49.484;11.112;2023-06-10T08:16:43;33.60;64.80
2721;DHT22;1368;49.484;11.112;2023-06-10T08:19:09;33.20;64.80
2721;DHT22;1368;49.484;11.112;2023-06-10T08:21:35;33.90;64.50
2721;DHT22;1368;49.484;11.112;2023-06-10T08:24:02;34.40;63.40
2721;DHT22;1368;49.484;11.112;2023-06-10T08:26:28;34.90;62.00
2721;DHT22;1368;49.484;11.112;2023-06-10T08:28:54;35.30;63.10
2721;DHT22;1368;49.484;11.112;2023-06-10T08:31:20;35.90;61.00
2721;DHT22;1368;49.484;11.112;2023-06-10T08:33:46;35.70;62.10
2721;DHT22;1368;49.484;11.112;2023-06-10T08:36:12;35.90;61.20
2721;DHT22;1368;49.484;11.112;2023-06-10T08:38:38;35.80;61.50
2721;DHT22;1368;49.484;11.112;2023-06-10T08:41:05;34.40;60.00
2721;DHT22;1368;49.484;11.112;2023-06-10T08:43:57;33.50;61.70
2721;DHT22;1368;49.484;11.112;2023-06-10T08:46:24;33.90;61.80
2721;DHT22;1368;49.484;11.112;2023-06-10T08:48:53;33.40;62.20
2721;DHT22;1368;49.484;11.112;2023-06-10T08:51:21;33.40;62.40
2721;DHT22;1368;49.484;11.112;2023-06-10T08:53:57;33.90;62.30
2721;DHT22;1368;49.484;11.112;2023-06-10T08:56:25;34.10;61.40
2721;DHT22;1368;49.484;11.112;2023-06-10T08:58:52;33.50;61.20
2721;DHT22;1368;49.484;11.112;2023-06-10T09:01:19;32.80;63.20
2721;DHT22;1368;49.484;11.112;2023-06-10T09:03:44;32.70;63.60
2721;DHT22;1368;49.484;11.112;2023-06-10T09:06:10;32.30;63.70
2721;DHT22;1368;49.484;11.112;2023-06-10T09:08:36;32.10;64.60
2721;DHT22;1368;49.484;11.112;2023-06-10T09:11:02;32.10;64.20
2721;DHT22;1368;49.484;11.112;2023-06-10T09:13:27;32.10;64.30
2721;DHT22;1368;49.484;11.112;2023-06-10T09:15:53;32.40;64.70
2721;DHT22;1368;49.484;11.112;2023-06-10T09:18:22;32.60;64.80
2721;DHT22;1368;49.484;11.112;2023-06-10T09:20:47;32.10;64.80
2721;DHT22;1368;49.484;11.112;2023-06-10T09:23:13;31.70;65.50
2721;DHT22;1368;49.484;11.112;2023-06-10T09:25:40;31.80;66.20
2721;DHT22;1368;49.484;11.112;2023-06-10T09:28:13;32.20;67.20
2721;DHT22;1368;49.484;11.112;2023-06-10T09:30:39;32.60;64.90
2721;DHT22;1368;49.484;11.112;2023-06-10T09:33:11;32.80;64.80
2721;DHT22;1368;49.484;11.112;2023-06-10T09:35:45;32.70;64.10
2721;DHT22;1368;49.484;11.112;2023-06-10T09:38:13;32.20;65.40
2721;DHT22;1368;49.484;11.112;2023-06-10T09:40:52;32.40;65.80
2721;DHT22;1368;49.484;11.112;2023-06-10T09:43:18;32.20;64.80
2721;DHT22;1368;49.484;11.112;2023-06-10T09:45:47;31.90;66.10
2721;DHT22;1368;49.484;11.112;2023-06-10T09:48:12;31.50;66.50
2721;DHT22;1368;49.484;11.112;2023-06-10T09:50:45;31.30;66.70
2721;DHT22;1368;49.484;11.112;2023-06-10T09:53:11;30.90;67.50
2721;DHT22;1368;49.484;11.112;2023-06-10T09:55:38;29.90;68.70
2721;DHT22;1368;49.484;11.112;2023-06-10T09:58:04;29.70;69.70
2721;DHT22;1368;49.484;11.112;2023-06-10T10:00:32;29.30;71.50
2721;DHT22;1368;49.484;11.112;2023-06-10T10:02:58;30.20;70.70
2721;DHT22;1368;49.484;11.112;2023-06-10T10:05:24;31.10;67.90
2721;DHT22;1368;49.484;11.112;2023-06-10T10:07:51;30.90;68.70
2721;DHT22;1368;49.484;11.112;2023-06-10T10:10:18;31.00;67.80
2721;DHT22;1368;49.484;11.112;2023-06-10T10:12:46;30.20;68.90
2721;DHT22;1368;49.484;11.112;2023-06-10T10:15:13;29.70;69.30
2721;DHT22;1368;49.484;11.112;2023-06-10T10:17:59;29.10;69.50
2721;DHT22;1368;49.484;11.112;2023-06-10T10:20:29;29.30;72.00
2721;DHT22;1368;49.484;11.112;2023-06-10T10:23:03;30.00;70.60
2721;DHT22;1368;49.484;11.112;2023-06-10T10:25:35;30.10;68.30
2721;DHT22;1368;49.484;11.112;2023-06-10T10:28:11;30.10;68.10
2721;DHT22;1368;49.484;11.112;2023-06-10T10:30:50;30.20;69.00
2721;DHT22;1368;49.484;11.112;2023-06-10T10:33:19;30.40;67.70
2721;DHT22;1368;49.484;11.112;2023-06-10T10:35:46;29.90;68.30
2721;DHT22;1368;49.484;11.112;2023-06-10T10:38:12;29.70;69.60
2721;DHT22;1368;49.484;11.112;2023-06-10T10:40:38;29.90;71.50
2721;DHT22;1368;49.484;11.112;2023-06-10T10:43:04;29.90;70.00
2721;DHT22;1368;49.484;11.112;2023-06-10T10:45:30;30.10;71.10
2721;DHT22;1368;49.484;11.112;2023-06-10T10:47:56;30.20;70.40
2721;DHT22;1368;49.484;11.112;2023-06-10T10:50:23;30.10;70.40
2721;DHT22;1368;49.484;11.112;2023-06-10T10:52:59;29.70;71.00
2721;DHT22;1368;49.484;11.112;2023-06-10T10:55:25;29.30;72.20
2721;DHT22;1368;49.484;11.112;2023-06-10T10:57:55;29.40;72.50
2721;DHT22;1368;49.484;11.112;2023-06-10T11:02:59;29.20;71.50
2721;DHT22;1368;49.484;11.112;2023-06-10T11:05:39;29.50;72.70
2721;DHT22;1368;49.484;11.112;2023-06-10T11:08:05;30.00;71.40
2721;DHT22;1368;49.484;11.112;2023-06-10T11:10:39;29.30;70.20
2721;DHT22;1368;49.484;11.112;2023-06-10T11:13:07;29.10;70.60
2721;DHT22;1368;49.484;11.112;2023-06-10T11:15:38;29.00;71.40
2721;DHT22;1368;49.484;11.112;2023-06-10T11:31:24;28.60;74.20
2721;DHT22;1368;49.484;11.112;2023-06-10T11:33:54;28.20;75.60
2721;DHT22;1368;49.484;11.112;2023-06-10T11:36:20;28.20;76.10
2721;DHT22;1368;49.484;11.112;2023-06-10T11:38:46;28.40;75.70
2721;DHT22;1368;49.484;11.112;2023-06-10T11:41:12;28.30;77.00
2721;DHT22;1368;49.484;11.112;2023-06-10T11:43:45;28.90;77.20
2721;DHT22;1368;49.484;11.112;2023-06-10T11:46:11;29.00;75.50
2721;DHT22;1368;49.484;11.112;2023-06-10T11:48:37;28.30;75.60
2721;DHT22;1368;49.484;11.112;2023-06-10T11:51:08;28.30;76.30
2721;DHT22;1368;49.484;11.112;2023-06-10T11:53:34;28.80;74.50
2721;DHT22;1368;49.484;11.112;2023-06-10T11:56:00;28.80;75.30
2721;DHT22;1368;49.484;11.112;2023-06-10T11:58:26;28.50;75.80
2721;DHT22;1368;49.484;11.112;2023-06-10T12:00:53;28.10;77.10
2721;DHT22;1368;49.484;11.112;2023-06-10T12:03:20;28.30;76.80
2721;DHT22;1368;49.484;11.112;2023-06-10T12:05:58;28.70;77.30
2721;DHT22;1368;49.484;11.112;2023-06-10T12:08:24;28.80;76.50
2721;DHT22;1368;49.484;11.112;2023-06-10T12:10:49;28.60;74.60
2721;DHT22;1368;49.484;11.112;2023-06-10T12:13:15;28.20;74.50
2721;DHT22;1368;49.484;11.112;2023-06-10T12:15:43;28.40;74.10
2721;DHT22;1368;49.484;11.112;2023-06-10T12:18:22;28.10;75.00
2721;DHT22;1368;49.484;11.112;2023-06-10T12:20:48;28.10;75.40
2721;DHT22;1368;49.484;11.112;2023-06-10T12:23:16;28.70;74.10
2721;DHT22;1368;49.484;11.112;2023-06-10T12:25:52;28.90;74.00
2721;DHT22;1368;49.484;11.112;2023-06-10T12:28:25;29.30;73.00
2721;DHT22;1368;49.484;11.112;2023-06-10T12:30:51;29.50;72.70
2721;DHT22;1368;49.484;11.112;2023-06-10T12:33:31;29.80;72.50
2721;DHT22;1368;49.484;11.112;2023-06-10T12:35:56;29.20;71.90
2721;DHT22;1368;49.484;11.112;2023-06-10T12:38:23;28.50;74.60
2721;DHT22;1368;49.484;11.112;2023-06-10T12:40:50;28.20;75.90
2721;DHT22;1368;49.484;11.112;2023-06-10T12:43:20;28.30;76.20
2721;DHT22;1368;49.484;11.112;2023-06-10T12:45:46;28.30;75.40
2721;DHT22;1368;49.484;11.112;2023-06-10T12:48:17;28.10;76.00
2721;DHT22;1368;49.484;11.112;2023-06-10T12:50:43;27.90;77.00
2721;DHT22;1368;49.484;11.112;2023-06-10T12:53:10;27.80;77.80
2721;DHT22;1368;49.484;11.112;2023-06-10T12:55:37;27.80;77.40
2721;DHT22;1368;49.484;11.112;2023-06-10T12:58:03;28.00;77.40
2721;DHT22;1368;49.484;11.112;2023-06-10T13:00:29;27.90;76.80
2721;DHT22;1368;49.484;11.112;2023-06-10T13:03:00;27.70;76.50
2721;DHT22;1368;49.484;11.112;2023-06-10T13:05:26;27.70;76.50
2721;DHT22;1368;49.484;11.112;2023-06-10T13:07:52;27.50;77.20
2721;DHT22;1368;49.484;11.112;2023-06-10T13:10:18;27.90;76.50
2721;DHT22;1368;49.484;11.112;2023-06-10T13:12:44;27.80;76.60
2721;DHT22;1368;49.484;11.112;2023-06-10T13:15:10;28.20;75.80
2721;DHT22;1368;49.484;11.112;2023-06-10T13:17:36;28.90;75.00
2721;DHT22;1368;49.484;11.112;2023-06-10T13:20:05;29.80;73.50
2721;DHT22;1368;49.484;11.112;2023-06-10T13:22:32;30.50;69.50
2721;DHT22;1368;49.484;11.112;2023-06-10T13:25:07;30.80;69.10
2721;DHT22;1368;49.484;11.112;2023-06-10T13:27:33;30.30;70.80
2721;DHT22;1368;49.484;11.112;2023-06-10T13:29:59;30.00;70.70
2721;DHT22;1368;49.484;11.112;2023-06-10T13:32:25;29.30;70.90
2721;DHT22;1368;49.484;11.112;2023-06-10T13:34:51;29.20;72.30
2721;DHT22;1368;49.484;11.112;2023-06-10T13:37:16;29.10;73.80
2721;DHT22;1368;49.484;11.112;2023-06-10T13:39:43;28.70;73.80
2721;DHT22;1368;49.484;11.112;2023-06-10T13:42:09;28.40;74.50
2721;DHT22;1368;49.484;11.112;2023-06-10T13:44:34;28.20;74.90
2721;DHT22;1368;49.484;11.112;2023-06-10T13:47:02;28.20;76.60
2721;DHT22;1368;49.484;11.112;2023-06-10T13:49:28;28.20;75.40
2721;DHT22;1368;49.484;11.112;2023-06-10T13:51:54;28.00;76.00
2721;DHT22;1368;49.484;11.112;2023-06-10T13:54:19;27.90;77.40
2721;DHT22;1368;49.484;11.112;2023-06-10T13:56:45;28.00;77.10
2721;DHT22;1368;49.484;11.112;2023-06-10T13:59:10;28.00;76.80
2721;DHT22;1368;49.484;11.112;2023-06-10T14:01:36;27.80;75.60
2721;DHT22;1368;49.484;11.112;2023-06-10T14:04:03;27.80;75.40
2721;DHT22;1368;49.484;11.112;2023-06-10T14:06:28;28.00;76.40
2721;DHT22;1368;49.484;11.112;2023-06-10T14:08:54;28.50;76.00
2721;DHT22;1368;49.484;11.112;2023-06-10T14:11:22;28.70;75.00
2721;DHT22;1368;49.484;11.112;2023-06-10T14:13:47;29.30;73.70
2721;DHT22;1368;49.484;11.112;2023-06-10T14:16:13;29.50;73.90
2721;DHT22;1368;49.484;11.112;2023-06-10T14:18:39;29.30;74.90
2721;DHT22;1368;49.484;11.112;2023-06-10T14:21:04;28.40;76.40
2721;DHT22;1368;49.484;11.112;2023-06-10T14:23:30;27.90;77.10
2721;DHT22;1368;49.484;11.112;2023-06-10T14:25:56;27.90;77.70
2721;DHT22;1368;49.484;11.112;2023-06-10T14:28:21;27.90;78.80
2721;DHT22;1368;49.484;11.112;2023-06-10T14:30:47;28.00;79.40
2721;DHT22;1368;49.484;11.112;2023-06-10T14:33:13;27.70;79.60
2721;DHT22;1368;49.484;11.112;2023-06-10T14:35:39;27.90;79.50
2721;DHT22;1368;49.484;11.112;2023-06-10T14:38:05;28.00;78.10
2721;DHT22;1368;49.484;11.112;2023-06-10T14:40:30;28.30;78.00
2721;DHT22;1368;49.484;11.112;2023-06-10T14:42:57;28.10;78.30
2721;DHT22;1368;49.484;11.112;2023-06-10T14:45:22;27.60;78.20
2721;DHT22;1368;49.484;11.112;2023-06-10T14:47:48;27.50;78.10
2721;DHT22;1368;49.484;11.112;2023-06-10T14:50:14;27.60;79.50
2721;DHT22;1368;49.484;11.112;2023-06-10T14:52:40;27.80;78.10
2721;DHT22;1368;49.484;11.112;2023-06-10T14:55:06;28.00;78.70
2721;DHT22;1368;49.484;11.112;2023-06-10T14:57:31;27.90;78.50
2721;DHT22;1368;49.484;11.112;2023-06-10T14:59:57;27.90;78.80
2721;DHT22;1368;49.484;11.112;2023-06-10T15:02:23;28.00;79.10
2721;DHT22;1368;49.484;11.112;2023-06-10T15:04:48;28.10;79.70
2721;DHT22;1368;49.484;11.112;2023-06-10T15:07:14;28.10;79.60
2721;DHT22;1368;49.484;11.112;2023-06-10T15:09:41;28.30;80.20
2721;DHT22;1368;49.484;11.112;2023-06-10T15:12:07;28.30;79.70
2721;DHT22;1368;49.484;11.112;2023-06-10T15:14:33;27.90;80.70
2721;DHT22;1368;49.484;11.112;2023-06-10T15:16:58;27.70;82.20
2721;DHT22;1368;49.484;11.112;2023-06-10T15:19:25;27.60;83.00
2721;DHT22;1368;49.484;11.112;2023-06-10T15:21:51;27.50;82.90
2721;DHT22;1368;49.484;11.112;2023-06-10T15:24:17;27.50;83.30
2721;DHT22;1368;49.484;11.112;2023-06-10T15:26:42;27.40;82.80
2721;DHT22;1368;49.484;11.112;2023-06-10T15:29:08;27.20;84.50
2721;DHT22;1368;49.484;11.112;2023-06-10T15:31:34;27.20;84.90
2721;DHT22;1368;49.484;11.112;2023-06-10T15:34:00;27.30;84.20
2721;DHT22;1368;49.484;11.112;2023-06-10T15:36:26;27.30;84.60
2721;DHT22;1368;49.484;11.112;2023-06-10T15:38:52;27.00;85.10
2721;DHT22;1368;49.484;11.112;2023-06-10T15:41:18;26.90;86.00
2721;DHT22;1368;49.484;11.112;2023-06-10T15:43:44;27.10;86.20
2721;DHT22;1368;49.484;11.112;2023-06-10T15:46:10;27.20;84.70
2721;DHT22;1368;49.484;11.112;2023-06-10T15:48:35;27.20;85.30
2721;DHT22;1368;49.484;11.112;2023-06-10T15:51:01;27.40;84.10
2721;DHT22;1368;49.484;11.112;2023-06-10T15:53:26;27.50;83.20
2721;DHT22;1368;49.484;11.112;2023-06-10T15:55:52;28.00;80.70
2721;DHT22;1368;49.484;11.112;2023-06-10T15:58:17;27.20;79.50
2721;DHT22;1368;49.484;11.112;2023-06-10T16:00:43;26.90;79.70